Terminal Aerodrome Forecast
Issued by NWS

Home | Current Version | Previous Version | Text Only | Print | Product List | Glossary Off
Versions: 1 2 3 4 5 6 7 8 9 10 11 12 13 14 15

000
FTUS42 KMHX 301136
TAFISO
TAF
KISO 301136Z 3012/0112 19009KT P6SM VCSH SCT010 BKN020
     FM301500 20014G24KT P6SM SCT020 BKN040
     FM302100 20012G22KT P6SM BKN200
     FM010300 21015G25KT 5SM SHRA SCT010 BKN025
     FM010900 24010KT P6SM BKN060
      AMD LTD TO CLD VIS AND WIND=

USA.gov is the U.S. government's official web portal to all federal, state and local government web resources and services.